Paraparaumu, New Zealand
Current Conditions -  °F | °C
As of 8:30 AM on Wednesday 22 Oct 2014 (Local Time) from NZWN Reporting Station
Few Clouds Few Clouds  
Wind Chill: 54°   Ceiling: Unl
Heat Index: 54°   Visibility: 6mi
Dew Point: 43°   Wind: 3mph
Humidity: 67%   Direction: 180°S
Pressure: 30.21"   Gusts: NA
Location:  40.91°S, 175.01°E
Report Text: NZWN 211930Z AUTO 18003KT 9999 FEW035/// 12/06 Q1023 NOSIG
Loading
Personal Weather Stations






























Interactive Weather Map
Tropical Storm Tracking
New forecast layout! Learn more

10-Day Weather Forecast

Advertisements
Track Severe Weather on mobile